Acton, Montana
Current Conditions -  °F | °C
As of 2:53 AM on Monday 22 Dec 2014 (Local Time) from KBIL Reporting Station
Clear Clear  
Wind Chill: 28°   Ceiling: Unl
Heat Index: 38°   Visibility: 10mi
Dew Point: 18°   Wind: 20mph
Humidity: 44%   Direction: 290°WNW
Pressure: 29.71"   Gusts: NA
Location:  45.93°N, 108.69°W
Report Text: KBIL 220953Z 29017KT 10SM CLR 03/M08 A2971 RMK AO2 PK WND 28028/0916 SLP067 T00331078
Loading
Personal Weather Stations






























Interactive Weather Map New forecast layout! Learn more

10-Day Weather Forecast

Advertisements
Track Severe Weather on mobile